Eurika — LYRZ — position and weather

sailwx.info

Track history (hours):
 
Tides and Currents Weather Stations Pressure Air Temp Water Temp Dewpoint Dewpoint Depression Visibility Wind Speed Wind Dir Waves Ship Positions

Eurika

Last reported at 2014-Jul-31 03:09 UTC. Time now 2014-Jul-31 05:28 UTC.
Position N 39°50' E 001°35'.

Length 79 m; draft 2.3 m.

MMSI: 277335000.

Date/timePositionNaut miles runAvg speedWind from/ knotsBaromVisibWave heightAir tempDewpointWater temp
2014-Jul-31 03:09N 39°50' E 001°35'5 7.8
2014-Jul-31 02:33N 39°51' E 001°41'8 7.7
2014-Jul-31 01:33N 39°51' E 001°51'8 7.7
2014-Jul-31 00:33N 39°53' E 002°01'7 7.5
2014-Jul-30 23:33N 39°54' E 002°11'7 7.3
2014-Jul-30 22:34N 39°55' E 002°20'7 7.3
2014-Jul-30 21:33N 39°57' E 002°29'7 7.4
2014-Jul-30 20:33N 39°58' E 002°39'7 7.4
2014-Jul-30 19:34N 39°59' E 002°48'32 7.6
2014-Jul-30 15:24N 39°56' E 003°29'234 5.4
2014-Jul-28 20:30N 39°52' E 008°34'201 4.3
2014-Jul-26 21:17N 42°29' E 005°47'7 8.5
2014-Jul-26 20:28N 42°35' E 005°41'11 8.5
2014-Jul-26 19:09N 42°44' E 005°32'5 8.3
2014-Jul-26 18:32N 42°48' E 005°29'8 7.9
2014-Jul-26 17:32N 42°55' E 005°23'17 8.1
2014-Jul-26 15:26N 43°09' E 005°10'7 7.9
2014-Jul-26 14:32N 43°14' E 005°03'8 8.3
2014-Jul-26 13:33N 43°21' E 004°57'6 6.3
2014-Jul-26 12:33N 43°23' E 004°49'  
Track history (hours):
 
Tides and Currents Weather Stations Pressure Air Temp Water Temp Dewpoint Dewpoint Depression Visibility Wind Speed Wind Dir Waves Ship Positions

Eurika

Last reported at 2014-Jul-31 03:09 UTC. Time now 2014-Jul-31 05:28 UTC.
Position N 39°50' E 001°35'.

Length 79 m; draft 2.3 m.

MMSI: 277335000.

Date/timePositionNaut miles runAvg speedWind from/ knotsBaromVisibWave heightAir tempDewpointWater temp
2014-Jul-31 03:09N 39°50' E 001°35'5 7.8
2014-Jul-31 02:33N 39°51' E 001°41'8 7.7
2014-Jul-31 01:33N 39°51' E 001°51'8 7.7
2014-Jul-31 00:33N 39°53' E 002°01'7 7.5
2014-Jul-30 23:33N 39°54' E 002°11'7 7.3
2014-Jul-30 22:34N 39°55' E 002°20'7 7.3
2014-Jul-30 21:33N 39°57' E 002°29'7 7.4
2014-Jul-30 20:33N 39°58' E 002°39'7 7.4
2014-Jul-30 19:34N 39°59' E 002°48'32 7.6
2014-Jul-30 15:24N 39°56' E 003°29'234 5.4
2014-Jul-28 20:30N 39°52' E 008°34'201 4.3
2014-Jul-26 21:17N 42°29' E 005°47'7 8.5
2014-Jul-26 20:28N 42°35' E 005°41'11 8.5
2014-Jul-26 19:09N 42°44' E 005°32'5 8.3
2014-Jul-26 18:32N 42°48' E 005°29'8 7.9
2014-Jul-26 17:32N 42°55' E 005°23'17 8.1
2014-Jul-26 15:26N 43°09' E 005°10'7 7.9
2014-Jul-26 14:32N 43°14' E 005°03'8 8.3
2014-Jul-26 13:33N 43°21' E 004°57'6 6.3
2014-Jul-26 12:33N 43°23' E 004°49'  

Dump ship's entire track history